sensor_id;sensor_type;location;lat;lon;timestamp;temperature;humidity
49222;DHT22;35047;37.588;-122.048;2022-08-20T00:00:47;32.30;46.70
49222;DHT22;35047;37.588;-122.048;2022-08-20T00:03:21;32.40;47.40
49222;DHT22;35047;37.588;-122.048;2022-08-20T00:05:56;32.60;47.30
49222;DHT22;35047;37.588;-122.048;2022-08-20T00:08:23;32.60;47.10
49222;DHT22;35047;37.588;-122.048;2022-08-20T00:10:50;32.20;47.40
49222;DHT22;35047;37.588;-122.048;2022-08-20T00:13:19;32.20;47.40
49222;DHT22;35047;37.588;-122.048;2022-08-20T00:15:46;32.00;47.90
49222;DHT22;35047;37.588;-122.048;2022-08-20T00:18:12;31.60;48.50
49222;DHT22;35047;37.588;-122.048;2022-08-20T00:20:40;31.40;49.10
49222;DHT22;35047;37.588;-122.048;2022-08-20T00:23:07;31.40;49.50
49222;DHT22;35047;37.588;-122.048;2022-08-20T00:25:34;31.50;49.40
49222;DHT22;35047;37.588;-122.048;2022-08-20T00:28:01;31.50;48.90
49222;DHT22;35047;37.588;-122.048;2022-08-20T00:30:28;31.40;49.30
49222;DHT22;35047;37.588;-122.048;2022-08-20T00:33:05;31.30;49.60
49222;DHT22;35047;37.588;-122.048;2022-08-20T00:35:32;31.20;50.10
49222;DHT22;35047;37.588;-122.048;2022-08-20T00:37:58;31.20;49.60
49222;DHT22;35047;37.588;-122.048;2022-08-20T00:40:29;31.10;49.90
49222;DHT22;35047;37.588;-122.048;2022-08-20T00:42:57;31.00;50.00
49222;DHT22;35047;37.588;-122.048;2022-08-20T00:45:28;31.20;50.40
49222;DHT22;35047;37.588;-122.048;2022-08-20T00:47:55;31.20;50.10
49222;DHT22;35047;37.588;-122.048;2022-08-20T00:50:23;31.30;50.10
49222;DHT22;35047;37.588;-122.048;2022-08-20T00:52:51;31.50;49.70
49222;DHT22;35047;37.588;-122.048;2022-08-20T00:55:20;31.50;49.50
49222;DHT22;35047;37.588;-122.048;2022-08-20T00:57:52;31.50;49.40
49222;DHT22;35047;37.588;-122.048;2022-08-20T01:00:29;31.80;48.90
49222;DHT22;35047;37.588;-122.048;2022-08-20T01:02:56;31.80;48.60
49222;DHT22;35047;37.588;-122.048;2022-08-20T01:05:25;31.70;48.70
49222;DHT22;35047;37.588;-122.048;2022-08-20T01:07:52;31.50;49.10
49222;DHT22;35047;37.588;-122.048;2022-08-20T01:10:21;31.60;48.80
49222;DHT22;35047;37.588;-122.048;2022-08-20T01:12:48;31.50;48.70
49222;DHT22;35047;37.588;-122.048;2022-08-20T01:15:16;31.70;48.90
49222;DHT22;35047;37.588;-122.048;2022-08-20T01:17:44;31.70;48.20
49222;DHT22;35047;37.588;-122.048;2022-08-20T01:20:32;31.20;48.70
49222;DHT22;35047;37.588;-122.048;2022-08-20T01:23:02;31.30;49.40
49222;DHT22;35047;37.588;-122.048;2022-08-20T01:28:37;32.00;48.40
49222;DHT22;35047;37.588;-122.048;2022-08-20T01:31:04;32.20;47.90
49222;DHT22;35047;37.588;-122.048;2022-08-20T01:33:32;32.10;48.10
49222;DHT22;35047;37.588;-122.048;2022-08-20T01:35:59;32.20;48.10
49222;DHT22;35047;37.588;-122.048;2022-08-20T01:38:26;32.40;47.70
49222;DHT22;35047;37.588;-122.048;2022-08-20T01:43:21;32.10;47.70
49222;DHT22;35047;37.588;-122.048;2022-08-20T01:45:49;31.90;47.70
49222;DHT22;35047;37.588;-122.048;2022-08-20T01:48:15;31.70;48.00
49222;DHT22;35047;37.588;-122.048;2022-08-20T01:50:43;31.60;48.30
49222;DHT22;35047;37.588;-122.048;2022-08-20T01:53:20;31.80;48.50
49222;DHT22;35047;37.588;-122.048;2022-08-20T01:55:49;31.70;48.50
49222;DHT22;35047;37.588;-122.048;2022-08-20T01:58:16;31.70;48.60
49222;DHT22;35047;37.588;-122.048;2022-08-20T02:00:42;31.60;48.90
49222;DHT22;35047;37.588;-122.048;2022-08-20T02:03:08;31.30;49.20
49222;DHT22;35047;37.588;-122.048;2022-08-20T02:05:35;31.30;49.60
49222;DHT22;35047;37.588;-122.048;2022-08-20T02:08:03;31.00;50.20
49222;DHT22;35047;37.588;-122.048;2022-08-20T02:10:29;30.70;50.50
49222;DHT22;35047;37.588;-122.048;2022-08-20T02:12:58;30.40;51.00
49222;DHT22;35047;37.588;-122.048;2022-08-20T02:15:25;29.90;51.70
49222;DHT22;35047;37.588;-122.048;2022-08-20T02:17:51;29.70;52.50
49222;DHT22;35047;37.588;-122.048;2022-08-20T02:20:19;29.40;52.80
49222;DHT22;35047;37.588;-122.048;2022-08-20T02:22:53;29.20;53.10
49222;DHT22;35047;37.588;-122.048;2022-08-20T02:25:20;28.80;53.80
49222;DHT22;35047;37.588;-122.048;2022-08-20T02:27:47;28.70;54.10
49222;DHT22;35047;37.588;-122.048;2022-08-20T02:30:16;28.50;54.90
49222;DHT22;35047;37.588;-122.048;2022-08-20T02:32:44;28.40;54.80
49222;DHT22;35047;37.588;-122.048;2022-08-20T02:35:10;28.20;55.30
49222;DHT22;35047;37.588;-122.048;2022-08-20T02:37:39;28.10;55.30
49222;DHT22;35047;37.588;-122.048;2022-08-20T02:40:07;28.00;55.90
49222;DHT22;35047;37.588;-122.048;2022-08-20T02:42:35;27.60;56.80
49222;DHT22;35047;37.588;-122.048;2022-08-20T02:45:01;27.50;56.80
49222;DHT22;35047;37.588;-122.048;2022-08-20T02:47:27;27.40;57.50
49222;DHT22;35047;37.588;-122.048;2022-08-20T02:49:54;27.50;57.30
49222;DHT22;35047;37.588;-122.048;2022-08-20T02:52:20;27.60;57.20
49222;DHT22;35047;37.588;-122.048;2022-08-20T02:54:46;27.30;57.70
49222;DHT22;35047;37.588;-122.048;2022-08-20T02:57:16;27.20;58.00
49222;DHT22;35047;37.588;-122.048;2022-08-20T02:59:45;26.90;58.20
49222;DHT22;35047;37.588;-122.048;2022-08-20T03:02:12;26.80;59.10
49222;DHT22;35047;37.588;-122.048;2022-08-20T03:04:40;26.80;59.00
49222;DHT22;35047;37.588;-122.048;2022-08-20T03:07:06;26.50;59.70
49222;DHT22;35047;37.588;-122.048;2022-08-20T03:09:34;26.60;59.40
49222;DHT22;35047;37.588;-122.048;2022-08-20T03:12:01;26.50;59.60
49222;DHT22;35047;37.588;-122.048;2022-08-20T03:14:28;26.30;59.90
49222;DHT22;35047;37.588;-122.048;2022-08-20T03:16:55;26.10;61.10
49222;DHT22;35047;37.588;-122.048;2022-08-20T03:19:22;25.90;61.30
49222;DHT22;35047;37.588;-122.048;2022-08-20T03:21:48;26.00;61.60
49222;DHT22;35047;37.588;-122.048;2022-08-20T03:24:14;25.90;61.70
49222;DHT22;35047;37.588;-122.048;2022-08-20T03:26:41;25.80;62.20
49222;DHT22;35047;37.588;-122.048;2022-08-20T03:29:08;25.90;61.80
49222;DHT22;35047;37.588;-122.048;2022-08-20T03:31:34;25.80;62.30
49222;DHT22;35047;37.588;-122.048;2022-08-20T03:34:00;25.50;62.50
49222;DHT22;35047;37.588;-122.048;2022-08-20T03:36:28;25.60;63.10
49222;DHT22;35047;37.588;-122.048;2022-08-20T03:38:54;25.40;63.20
49222;DHT22;35047;37.588;-122.048;2022-08-20T03:41:22;25.50;63.30
49222;DHT22;35047;37.588;-122.048;2022-08-20T03:43:48;25.60;63.20
49222;DHT22;35047;37.588;-122.048;2022-08-20T03:46:14;25.60;62.60
49222;DHT22;35047;37.588;-122.048;2022-08-20T03:48:40;25.50;63.40
49222;DHT22;35047;37.588;-122.048;2022-08-20T03:51:07;25.50;63.20
49222;DHT22;35047;37.588;-122.048;2022-08-20T03:53:34;25.30;63.70
49222;DHT22;35047;37.588;-122.048;2022-08-20T03:56:02;25.20;64.80
49222;DHT22;35047;37.588;-122.048;2022-08-20T03:58:31;25.00;64.40
49222;DHT22;35047;37.588;-122.048;2022-08-20T04:00:57;25.10;64.50
49222;DHT22;35047;37.588;-122.048;2022-08-20T04:03:24;25.10;64.30
49222;DHT22;35047;37.588;-122.048;2022-08-20T04:05:51;24.90;64.40
49222;DHT22;35047;37.588;-122.048;2022-08-20T04:08:21;24.80;65.20
49222;DHT22;35047;37.588;-122.048;2022-08-20T04:10:49;24.70;65.00
49222;DHT22;35047;37.588;-122.048;2022-08-20T04:13:17;24.50;65.90
49222;DHT22;35047;37.588;-122.048;2022-08-20T04:15:43;24.50;66.20
49222;DHT22;35047;37.588;-122.048;2022-08-20T04:18:11;24.60;66.00
49222;DHT22;35047;37.588;-122.048;2022-08-20T04:20:38;24.80;65.60
49222;DHT22;35047;37.588;-122.048;2022-08-20T04:23:05;24.70;65.40
49222;DHT22;35047;37.588;-122.048;2022-08-20T04:25:32;24.80;65.60
49222;DHT22;35047;37.588;-122.048;2022-08-20T04:28:00;24.70;65.90
49222;DHT22;35047;37.588;-122.048;2022-08-20T04:30:26;24.70;65.50
49222;DHT22;35047;37.588;-122.048;2022-08-20T04:32:53;24.70;65.80
49222;DHT22;35047;37.588;-122.048;2022-08-20T04:35:21;24.70;65.60
49222;DHT22;35047;37.588;-122.048;2022-08-20T04:37:49;24.60;65.20
49222;DHT22;35047;37.588;-122.048;2022-08-20T04:40:22;24.60;65.40
49222;DHT22;35047;37.588;-122.048;2022-08-20T04:43:07;24.60;65.90
49222;DHT22;35047;37.588;-122.048;2022-08-20T04:45:34;24.50;66.50
49222;DHT22;35047;37.588;-122.048;2022-08-20T04:48:01;24.40;66.40
49222;DHT22;35047;37.588;-122.048;2022-08-20T04:50:32;24.30;66.10
49222;DHT22;35047;37.588;-122.048;2022-08-20T04:53:02;24.20;66.60
49222;DHT22;35047;37.588;-122.048;2022-08-20T04:55:29;24.20;66.90
49222;DHT22;35047;37.588;-122.048;2022-08-20T04:58:01;24.10;66.50
49222;DHT22;35047;37.588;-122.048;2022-08-20T05:00:29;24.00;67.70
49222;DHT22;35047;37.588;-122.048;2022-08-20T05:02:56;24.10;67.50
49222;DHT22;35047;37.588;-122.048;2022-08-20T05:05:22;24.00;67.60
49222;DHT22;35047;37.588;-122.048;2022-08-20T05:07:48;23.90;68.00
49222;DHT22;35047;37.588;-122.048;2022-08-20T05:10:15;24.00;67.60
49222;DHT22;35047;37.588;-122.048;2022-08-20T05:12:42;24.00;68.10
49222;DHT22;35047;37.588;-122.048;2022-08-20T05:15:10;23.90;68.00
49222;DHT22;35047;37.588;-122.048;2022-08-20T05:17:37;23.90;67.40
49222;DHT22;35047;37.588;-122.048;2022-08-20T05:20:04;23.80;68.00
49222;DHT22;35047;37.588;-122.048;2022-08-20T05:22:31;23.80;68.00
49222;DHT22;35047;37.588;-122.048;2022-08-20T05:24:57;24.00;68.20
49222;DHT22;35047;37.588;-122.048;2022-08-20T05:27:26;23.90;67.90
49222;DHT22;35047;37.588;-122.048;2022-08-20T05:29:53;23.90;68.10
49222;DHT22;35047;37.588;-122.048;2022-08-20T05:32:21;23.80;67.80
49222;DHT22;35047;37.588;-122.048;2022-08-20T05:34:48;23.70;68.30
49222;DHT22;35047;37.588;-122.048;2022-08-20T05:37:14;23.70;68.80
49222;DHT22;35047;37.588;-122.048;2022-08-20T05:39:42;23.60;68.80
49222;DHT22;35047;37.588;-122.048;2022-08-20T05:42:08;23.70;68.90
49222;DHT22;35047;37.588;-122.048;2022-08-20T05:44:36;23.70;69.00
49222;DHT22;35047;37.588;-122.048;2022-08-20T05:47:02;23.70;68.60
49222;DHT22;35047;37.588;-122.048;2022-08-20T05:49:29;23.60;68.20
49222;DHT22;35047;37.588;-122.048;2022-08-20T05:51:56;23.50;68.80
49222;DHT22;35047;37.588;-122.048;2022-08-20T05:54:23;23.40;69.60
49222;DHT22;35047;37.588;-122.048;2022-08-20T05:56:50;23.40;69.60
49222;DHT22;35047;37.588;-122.048;2022-08-20T05:59:16;23.30;70.00
49222;DHT22;35047;37.588;-122.048;2022-08-20T06:01:42;23.40;69.60
49222;DHT22;35047;37.588;-122.048;2022-08-20T06:04:09;23.40;69.80
49222;DHT22;35047;37.588;-122.048;2022-08-20T06:07:00;23.50;69.80
49222;DHT22;35047;37.588;-122.048;2022-08-20T06:09:28;23.50;69.30
49222;DHT22;35047;37.588;-122.048;2022-08-20T06:11:55;23.40;69.20
49222;DHT22;35047;37.588;-122.048;2022-08-20T06:14:24;23.40;70.40
49222;DHT22;35047;37.588;-122.048;2022-08-20T06:16:51;23.60;69.70
49222;DHT22;35047;37.588;-122.048;2022-08-20T06:19:17;23.60;69.30
49222;DHT22;35047;37.588;-122.048;2022-08-20T06:21:43;23.70;69.00
49222;DHT22;35047;37.588;-122.048;2022-08-20T06:24:09;23.70;69.00
49222;DHT22;35047;37.588;-122.048;2022-08-20T06:26:36;23.70;68.80
49222;DHT22;35047;37.588;-122.048;2022-08-20T06:29:03;23.80;68.90
49222;DHT22;35047;37.588;-122.048;2022-08-20T06:31:30;23.80;68.40
49222;DHT22;35047;37.588;-122.048;2022-08-20T06:33:59;23.80;68.40
49222;DHT22;35047;37.588;-122.048;2022-08-20T06:36:26;23.80;68.50
49222;DHT22;35047;37.588;-122.048;2022-08-20T06:38:52;23.80;68.30
49222;DHT22;35047;37.588;-122.048;2022-08-20T06:41:22;23.80;68.50
49222;DHT22;35047;37.588;-122.048;2022-08-20T06:43:49;23.70;68.70
49222;DHT22;35047;37.588;-122.048;2022-08-20T06:46:18;23.60;68.40
49222;DHT22;35047;37.588;-122.048;2022-08-20T06:48:45;23.60;69.30
49222;DHT22;35047;37.588;-122.048;2022-08-20T06:51:11;23.70;69.10
49222;DHT22;35047;37.588;-122.048;2022-08-20T06:53:38;23.70;68.90
49222;DHT22;35047;37.588;-122.048;2022-08-20T06:56:04;23.70;68.60
49222;DHT22;35047;37.588;-122.048;2022-08-20T06:58:31;23.70;68.60
49222;DHT22;35047;37.588;-122.048;2022-08-20T07:00:57;23.70;68.10
49222;DHT22;35047;37.588;-122.048;2022-08-20T07:03:25;23.50;68.80
49222;DHT22;35047;37.588;-122.048;2022-08-20T07:05:51;23.50;69.30
49222;DHT22;35047;37.588;-122.048;2022-08-20T07:08:18;23.60;69.20
49222;DHT22;35047;37.588;-122.048;2022-08-20T07:10:47;23.70;69.10
49222;DHT22;35047;37.588;-122.048;2022-08-20T07:13:13;23.70;68.70
49222;DHT22;35047;37.588;-122.048;2022-08-20T07:15:41;23.70;68.70
49222;DHT22;35047;37.588;-122.048;2022-08-20T07:18:08;23.70;68.80
49222;DHT22;35047;37.588;-122.048;2022-08-20T07:20:35;23.70;68.50
49222;DHT22;35047;37.588;-122.048;2022-08-20T07:23:02;23.70;68.50
49222;DHT22;35047;37.588;-122.048;2022-08-20T07:25:29;23.70;68.30
49222;DHT22;35047;37.588;-122.048;2022-08-20T07:28:10;23.60;68.80
49222;DHT22;35047;37.588;-122.048;2022-08-20T07:30:36;23.40;69.20
49222;DHT22;35047;37.588;-122.048;2022-08-20T07:33:20;23.40;69.70
49222;DHT22;35047;37.588;-122.048;2022-08-20T07:35:47;23.30;69.50
49222;DHT22;35047;37.588;-122.048;2022-08-20T07:38:18;23.40;69.60
49222;DHT22;35047;37.588;-122.048;2022-08-20T07:40:53;23.50;69.50
49222;DHT22;35047;37.588;-122.048;2022-08-20T07:43:20;23.50;69.10
49222;DHT22;35047;37.588;-122.048;2022-08-20T07:45:50;23.50;69.60
49222;DHT22;35047;37.588;-122.048;2022-08-20T07:48:17;23.40;69.20
49222;DHT22;35047;37.588;-122.048;2022-08-20T07:50:44;23.50;69.30
49222;DHT22;35047;37.588;-122.048;2022-08-20T07:53:12;23.60;69.10
49222;DHT22;35047;37.588;-122.048;2022-08-20T07:55:38;23.60;69.00
49222;DHT22;35047;37.588;-122.048;2022-08-20T07:58:07;23.60;68.80
49222;DHT22;35047;37.588;-122.048;2022-08-20T08:00:34;23.70;68.50
49222;DHT22;35047;37.588;-122.048;2022-08-20T08:03:00;23.70;68.30
49222;DHT22;35047;37.588;-122.048;2022-08-20T08:05:26;23.50;68.40
49222;DHT22;35047;37.588;-122.048;2022-08-20T08:07:55;23.50;68.70
49222;DHT22;35047;37.588;-122.048;2022-08-20T08:10:22;23.50;68.60
49222;DHT22;35047;37.588;-122.048;2022-08-20T08:12:52;23.40;69.00
49222;DHT22;35047;37.588;-122.048;2022-08-20T08:15:23;23.30;69.40
49222;DHT22;35047;37.588;-122.048;2022-08-20T08:17:51;23.30;69.40
49222;DHT22;35047;37.588;-122.048;2022-08-20T08:20:20;23.40;69.40
49222;DHT22;35047;37.588;-122.048;2022-08-20T08:22:47;23.40;69.30
49222;DHT22;35047;37.588;-122.048;2022-08-20T08:25:15;23.30;69.80
49222;DHT22;35047;37.588;-122.048;2022-08-20T08:27:42;23.10;69.90
49222;DHT22;35047;37.588;-122.048;2022-08-20T08:30:12;23.00;70.40
49222;DHT22;35047;37.588;-122.048;2022-08-20T08:32:38;23.10;70.20
49222;DHT22;35047;37.588;-122.048;2022-08-20T08:35:24;23.20;69.60
49222;DHT22;35047;37.588;-122.048;2022-08-20T08:37:51;23.30;69.50
49222;DHT22;35047;37.588;-122.048;2022-08-20T08:40:19;23.30;69.70
49222;DHT22;35047;37.588;-122.048;2022-08-20T08:42:47;23.30;69.40
49222;DHT22;35047;37.588;-122.048;2022-08-20T08:45:38;23.20;69.70
49222;DHT22;35047;37.588;-122.048;2022-08-20T08:48:11;23.20;70.00
49222;DHT22;35047;37.588;-122.048;2022-08-20T08:50:39;23.10;70.10
49222;DHT22;35047;37.588;-122.048;2022-08-20T08:53:07;23.20;69.80
49222;DHT22;35047;37.588;-122.048;2022-08-20T08:55:36;23.30;69.30
49222;DHT22;35047;37.588;-122.048;2022-08-20T08:58:02;23.20;69.40
49222;DHT22;35047;37.588;-122.048;2022-08-20T09:00:28;23.20;69.30
49222;DHT22;35047;37.588;-122.048;2022-08-20T09:02:56;23.10;69.60
49222;DHT22;35047;37.588;-122.048;2022-08-20T09:05:26;23.10;69.60
49222;DHT22;35047;37.588;-122.048;2022-08-20T09:07:56;23.10;70.10
49222;DHT22;35047;37.588;-122.048;2022-08-20T09:10:24;23.10;69.70
49222;DHT22;35047;37.588;-122.048;2022-08-20T09:12:50;23.10;69.80
49222;DHT22;35047;37.588;-122.048;2022-08-20T09:15:16;23.20;69.40
49222;DHT22;35047;37.588;-122.048;2022-08-20T09:17:45;23.20;69.80
49222;DHT22;35047;37.588;-122.048;2022-08-20T09:20:12;23.20;69.10
49222;DHT22;35047;37.588;-122.048;2022-08-20T09:22:38;23.10;69.10
49222;DHT22;35047;37.588;-122.048;2022-08-20T09:25:06;23.10;69.10
49222;DHT22;35047;37.588;-122.048;2022-08-20T09:27:32;23.00;69.40
49222;DHT22;35047;37.588;-122.048;2022-08-20T09:29:59;23.10;69.70
49222;DHT22;35047;37.588;-122.048;2022-08-20T09:32:25;23.00;70.00
49222;DHT22;35047;37.588;-122.048;2022-08-20T09:34:52;23.00;69.90
49222;DHT22;35047;37.588;-122.048;2022-08-20T09:37:23;23.00;69.60
49222;DHT22;35047;37.588;-122.048;2022-08-20T09:39:51;23.10;69.30
49222;DHT22;35047;37.588;-122.048;2022-08-20T09:42:19;23.00;69.80
49222;DHT22;35047;37.588;-122.048;2022-08-20T09:44:46;23.00;69.80
49222;DHT22;35047;37.588;-122.048;2022-08-20T09:47:12;23.00;69.50
49222;DHT22;35047;37.588;-122.048;2022-08-20T09:49:40;23.00;69.20
49222;DHT22;35047;37.588;-122.048;2022-08-20T09:52:07;23.00;69.70
49222;DHT22;35047;37.588;-122.048;2022-08-20T09:54:33;23.00;69.50
49222;DHT22;35047;37.588;-122.048;2022-08-20T09:57:03;23.00;69.50
49222;DHT22;35047;37.588;-122.048;2022-08-20T09:59:30;23.00;69.40
49222;DHT22;35047;37.588;-122.048;2022-08-20T10:01:57;22.90;69.50
49222;DHT22;35047;37.588;-122.048;2022-08-20T10:04:24;23.00;69.60
49222;DHT22;35047;37.588;-122.048;2022-08-20T10:06:50;23.00;69.50
49222;DHT22;35047;37.588;-122.048;2022-08-20T10:09:16;22.90;69.50
49222;DHT22;35047;37.588;-122.048;2022-08-20T10:11:43;22.90;69.50
49222;DHT22;35047;37.588;-122.048;2022-08-20T10:14:10;22.90;69.20
49222;DHT22;35047;37.588;-122.048;2022-08-20T10:16:36;22.90;69.50
49222;DHT22;35047;37.588;-122.048;2022-08-20T10:19:03;22.90;69.70
49222;DHT22;35047;37.588;-122.048;2022-08-20T10:21:31;22.80;69.80
49222;DHT22;35047;37.588;-122.048;2022-08-20T10:23:57;22.80;69.80
49222;DHT22;35047;37.588;-122.048;2022-08-20T10:26:24;22.90;69.70
49222;DHT22;35047;37.588;-122.048;2022-08-20T10:28:51;22.80;69.50
49222;DHT22;35047;37.588;-122.048;2022-08-20T10:31:18;22.70;69.50
49222;DHT22;35047;37.588;-122.048;2022-08-20T10:33:45;22.70;70.30
49222;DHT22;35047;37.588;-122.048;2022-08-20T10:36:16;22.60;70.20
49222;DHT22;35047;37.588;-122.048;2022-08-20T10:38:42;22.70;70.30
49222;DHT22;35047;37.588;-122.048;2022-08-20T10:41:09;22.70;69.80
49222;DHT22;35047;37.588;-122.048;2022-08-20T10:43:37;22.70;69.80
49222;DHT22;35047;37.588;-122.048;2022-08-20T10:46:03;22.70;69.80
49222;DHT22;35047;37.588;-122.048;2022-08-20T10:48:30;22.80;69.80
49222;DHT22;35047;37.588;-122.048;2022-08-20T10:50:56;22.70;69.60
49222;DHT22;35047;37.588;-122.048;2022-08-20T10:53:23;22.70;69.70
49222;DHT22;35047;37.588;-122.048;2022-08-20T10:55:49;22.80;69.60
49222;DHT22;35047;37.588;-122.048;2022-08-20T10:58:15;22.70;69.50
49222;DHT22;35047;37.588;-122.048;2022-08-20T11:00:42;22.70;69.50
49222;DHT22;35047;37.588;-122.048;2022-08-20T11:03:10;22.70;69.50
49222;DHT22;35047;37.588;-122.048;2022-08-20T11:05:37;22.70;69.40
49222;DHT22;35047;37.588;-122.048;2022-08-20T11:08:04;22.70;69.10
49222;DHT22;35047;37.588;-122.048;2022-08-20T11:10:32;22.60;69.80
49222;DHT22;35047;37.588;-122.048;2022-08-20T11:12:59;22.60;69.80
49222;DHT22;35047;37.588;-122.048;2022-08-20T11:15:26;22.70;69.70
49222;DHT22;35047;37.588;-122.048;2022-08-20T11:17:53;22.60;69.60
49222;DHT22;35047;37.588;-122.048;2022-08-20T11:20:21;22.60;69.50
49222;DHT22;35047;37.588;-122.048;2022-08-20T11:22:49;22.60;69.60
49222;DHT22;35047;37.588;-122.048;2022-08-20T11:25:16;22.60;69.50
49222;DHT22;35047;37.588;-122.048;2022-08-20T11:27:44;22.60;69.40
49222;DHT22;35047;37.588;-122.048;2022-08-20T11:30:12;22.60;69.20
49222;DHT22;35047;37.588;-122.048;2022-08-20T11:32:39;22.50;69.50
49222;DHT22;35047;37.588;-122.048;2022-08-20T11:35:07;22.50;69.50
49222;DHT22;35047;37.588;-122.048;2022-08-20T11:37:33;22.60;69.70
49222;DHT22;35047;37.588;-122.048;2022-08-20T11:40:00;22.50;69.50
49222;DHT22;35047;37.588;-122.048;2022-08-20T11:42:26;22.60;69.40
49222;DHT22;35047;37.588;-122.048;2022-08-20T11:44:52;22.60;69.30
49222;DHT22;35047;37.588;-122.048;2022-08-20T11:47:21;22.60;69.40
49222;DHT22;35047;37.588;-122.048;2022-08-20T11:49:54;22.50;70.00
49222;DHT22;35047;37.588;-122.048;2022-08-20T11:52:20;22.50;69.30
49222;DHT22;35047;37.588;-122.048;2022-08-20T11:54:47;22.50;69.30
49222;DHT22;35047;37.588;-122.048;2022-08-20T11:57:24;22.50;69.30
49222;DHT22;35047;37.588;-122.048;2022-08-20T11:59:51;22.50;69.30
49222;DHT22;35047;37.588;-122.048;2022-08-20T12:02:17;22.50;69.30
49222;DHT22;35047;37.588;-122.048;2022-08-20T12:04:44;22.40;69.40
49222;DHT22;35047;37.588;-122.048;2022-08-20T12:07:11;22.40;69.30
49222;DHT22;35047;37.588;-122.048;2022-08-20T12:09:40;22.40;69.40
49222;DHT22;35047;37.588;-122.048;2022-08-20T12:12:06;22.40;69.60
49222;DHT22;35047;37.588;-122.048;2022-08-20T12:14:32;22.40;70.40
49222;DHT22;35047;37.588;-122.048;2022-08-20T12:19:35;22.40;72.50
49222;DHT22;35047;37.588;-122.048;2022-08-20T12:22:03;22.20;74.00
49222;DHT22;35047;37.588;-122.048;2022-08-20T12:24:29;22.20;74.70
49222;DHT22;35047;37.588;-122.048;2022-08-20T12:27:06;22.20;74.00
49222;DHT22;35047;37.588;-122.048;2022-08-20T12:29:33;22.20;73.70
49222;DHT22;35047;37.588;-122.048;2022-08-20T12:31:59;22.20;73.10
49222;DHT22;35047;37.588;-122.048;2022-08-20T12:34:26;22.30;73.50
49222;DHT22;35047;37.588;-122.048;2022-08-20T12:36:58;22.30;74.40
49222;DHT22;35047;37.588;-122.048;2022-08-20T12:39:25;22.30;74.40
49222;DHT22;35047;37.588;-122.048;2022-08-20T12:41:56;22.30;74.70
49222;DHT22;35047;37.588;-122.048;2022-08-20T12:44:23;22.30;75.30
49222;DHT22;35047;37.588;-122.048;2022-08-20T12:46:49;22.30;73.80
49222;DHT22;35047;37.588;-122.048;2022-08-20T12:49:15;22.30;73.40
49222;DHT22;35047;37.588;-122.048;2022-08-20T12:51:41;22.30;73.70
49222;DHT22;35047;37.588;-122.048;2022-08-20T12:54:07;22.30;72.80
49222;DHT22;35047;37.588;-122.048;2022-08-20T12:56:34;22.30;72.00
49222;DHT22;35047;37.588;-122.048;2022-08-20T12:59:01;22.20;72.40
49222;DHT22;35047;37.588;-122.048;2022-08-20T13:01:27;22.20;72.40
49222;DHT22;35047;37.588;-122.048;2022-08-20T13:03:54;22.20;72.20
49222;DHT22;35047;37.588;-122.048;2022-08-20T13:06:21;22.20;72.70
49222;DHT22;35047;37.588;-122.048;2022-08-20T13:08:47;22.20;72.50
49222;DHT22;35047;37.588;-122.048;2022-08-20T13:11:13;22.20;72.60
49222;DHT22;35047;37.588;-122.048;2022-08-20T13:13:39;22.20;72.40
49222;DHT22;35047;37.588;-122.048;2022-08-20T13:16:08;22.10;71.50
49222;DHT22;35047;37.588;-122.048;2022-08-20T13:18:34;22.10;71.60
49222;DHT22;35047;37.588;-122.048;2022-08-20T13:21:01;22.10;72.00
49222;DHT22;35047;37.588;-122.048;2022-08-20T13:23:28;22.10;72.50
49222;DHT22;35047;37.588;-122.048;2022-08-20T13:25:55;22.10;71.80
49222;DHT22;35047;37.588;-122.048;2022-08-20T13:28:22;22.10;71.80
49222;DHT22;35047;37.588;-122.048;2022-08-20T13:30:49;22.00;71.40
49222;DHT22;35047;37.588;-122.048;2022-08-20T13:33:15;22.00;71.50
49222;DHT22;35047;37.588;-122.048;2022-08-20T13:35:42;22.00;71.90
49222;DHT22;35047;37.588;-122.048;2022-08-20T13:38:08;22.00;72.30
49222;DHT22;35047;37.588;-122.048;2022-08-20T13:40:35;22.00;72.40
49222;DHT22;35047;37.588;-122.048;2022-08-20T13:43:01;22.00;72.30
49222;DHT22;35047;37.588;-122.048;2022-08-20T13:45:28;22.00;71.70
49222;DHT22;35047;37.588;-122.048;2022-08-20T13:47:54;21.90;71.50
49222;DHT22;35047;37.588;-122.048;2022-08-20T13:50:21;21.90;71.80
49222;DHT22;35047;37.588;-122.048;2022-08-20T13:52:48;21.90;71.50
49222;DHT22;35047;37.588;-122.048;2022-08-20T13:55:16;21.90;71.40
49222;DHT22;35047;37.588;-122.048;2022-08-20T13:57:44;21.90;71.50
49222;DHT22;35047;37.588;-122.048;2022-08-20T14:00:12;21.90;72.00
49222;DHT22;35047;37.588;-122.048;2022-08-20T14:02:39;21.90;72.30
49222;DHT22;35047;37.588;-122.048;2022-08-20T14:05:06;21.90;72.70
49222;DHT22;35047;37.588;-122.048;2022-08-20T14:07:32;21.90;72.70
49222;DHT22;35047;37.588;-122.048;2022-08-20T14:10:00;21.90;72.60
49222;DHT22;35047;37.588;-122.048;2022-08-20T14:12:27;22.00;72.70
49222;DHT22;35047;37.588;-122.048;2022-08-20T14:14:54;22.00;73.30
49222;DHT22;35047;37.588;-122.048;2022-08-20T14:19:49;22.00;72.90
49222;DHT22;35047;37.588;-122.048;2022-08-20T14:22:16;22.00;73.00
49222;DHT22;35047;37.588;-122.048;2022-08-20T14:24:43;22.00;73.40
49222;DHT22;35047;37.588;-122.048;2022-08-20T14:27:10;22.10;73.40
49222;DHT22;35047;37.588;-122.048;2022-08-20T14:29:37;22.20;73.20
49222;DHT22;35047;37.588;-122.048;2022-08-20T14:32:04;22.20;73.60
49222;DHT22;35047;37.588;-122.048;2022-08-20T14:34:31;22.20;73.70
49222;DHT22;35047;37.588;-122.048;2022-08-20T14:37:14;22.20;73.60
49222;DHT22;35047;37.588;-122.048;2022-08-20T14:39:42;22.30;73.40
49222;DHT22;35047;37.588;-122.048;2022-08-20T14:42:09;22.40;73.70
49222;DHT22;35047;37.588;-122.048;2022-08-20T14:44:35;22.40;73.80
49222;DHT22;35047;37.588;-122.048;2022-08-20T14:47:21;22.40;74.00
49222;DHT22;35047;37.588;-122.048;2022-08-20T14:49:49;22.50;73.80
49222;DHT22;35047;37.588;-122.048;2022-08-20T14:52:16;22.60;73.80
49222;DHT22;35047;37.588;-122.048;2022-08-20T14:54:43;22.70;74.00
49222;DHT22;35047;37.588;-122.048;2022-08-20T14:57:10;22.70;73.90
49222;DHT22;35047;37.588;-122.048;2022-08-20T14:59:37;22.80;74.00
49222;DHT22;35047;37.588;-122.048;2022-08-20T15:02:04;22.90;74.50